createdAt,value
2022-12-08T00:00:02.315Z,2.1
2022-12-08T00:01:02.323Z,2.1
2022-12-08T00:02:01.553Z,2.1
2022-12-08T00:03:02.438Z,2.1
2022-12-08T00:04:01.689Z,2.1
2022-12-08T00:05:01.909Z,2
2022-12-08T00:06:01.724Z,2.1
2022-12-08T00:07:01.759Z,2.1
2022-12-08T00:08:01.711Z,2.1
2022-12-08T00:09:01.802Z,2.2
2022-12-08T00:10:10.425Z,2.2
2022-12-08T00:11:02.129Z,2.2
2022-12-08T00:12:02.071Z,2.2
2022-12-08T00:13:02.124Z,2.1
2022-12-08T00:14:01.986Z,2.2
2022-12-08T00:15:02.288Z,2.2
2022-12-08T00:16:02.083Z,2.1
2022-12-08T00:17:02.183Z,2.3
2022-12-08T00:18:02.220Z,2.2
2022-12-08T00:19:02.078Z,2.2
2022-12-08T00:20:02.129Z,2.3
2022-12-08T00:21:01.946Z,2.2
2022-12-08T00:22:01.928Z,2.2
2022-12-08T00:23:01.937Z,2.2
2022-12-08T00:24:01.725Z,2.2
2022-12-08T00:25:02.101Z,2.2
2022-12-08T00:26:01.961Z,2.1
2022-12-08T00:27:01.912Z,2.2
2022-12-08T00:28:01.920Z,2.2
2022-12-08T00:29:01.787Z,2.3
2022-12-08T00:30:01.754Z,2.3
2022-12-08T00:31:01.791Z,2.2
2022-12-08T00:32:01.756Z,2.2
2022-12-08T00:33:01.873Z,2.2
2022-12-08T00:34:01.748Z,2.1
2022-12-08T00:35:02.145Z,2.3
2022-12-08T00:36:02.203Z,2.2
2022-12-08T00:37:02.238Z,2.2
2022-12-08T00:38:02.075Z,2.2
2022-12-08T00:39:02.121Z,2.2
2022-12-08T00:40:02.496Z,2.2
2022-12-08T00:41:02.284Z,2.2
2022-12-08T00:42:02.343Z,2.3
2022-12-08T00:43:02.191Z,2.2
2022-12-08T00:44:02.229Z,2.2
2022-12-08T00:45:02.052Z,2.1
2022-12-08T00:46:02.114Z,2.1
2022-12-08T00:47:02.109Z,2.2
2022-12-08T00:48:02.069Z,2.2
2022-12-08T00:49:02.069Z,2.2
2022-12-08T00:50:02.446Z,2.2
2022-12-08T00:51:01.585Z,2.2
2022-12-08T00:52:01.610Z,2.2
2022-12-08T00:53:01.506Z,2.2
2022-12-08T00:54:01.616Z,2.1
2022-12-08T00:55:01.405Z,2.2
2022-12-08T00:56:01.476Z,2.2
2022-12-08T00:57:01.320Z,2.2
2022-12-08T00:58:02.366Z,2.2
2022-12-08T00:59:02.210Z,2.2
2022-12-08T01:00:02.511Z,2.2
2022-12-08T01:01:01.614Z,2.1
2022-12-08T01:02:01.940Z,2.2
2022-12-08T01:03:02.060Z,2.2
2022-12-08T01:04:02.036Z,2.2
2022-12-08T01:05:01.992Z,2.1
2022-12-08T01:06:02.003Z,2.2
2022-12-08T01:07:01.881Z,2.2
2022-12-08T01:08:01.841Z,2.2
2022-12-08T01:09:01.935Z,2.1
2022-12-08T01:10:01.914Z,2.2
2022-12-08T01:11:01.832Z,2.1
2022-12-08T01:12:01.888Z,2.3
2022-12-08T01:13:01.737Z,2.2
2022-12-08T01:14:01.792Z,2.2
2022-12-08T01:15:02.642Z,2.3
2022-12-08T01:16:01.712Z,2.3
2022-12-08T01:17:01.609Z,2.2
2022-12-08T01:18:01.802Z,2.2
2022-12-08T01:19:01.574Z,2.3
2022-12-08T01:20:01.819Z,2.2
2022-12-08T01:21:02.018Z,2.3
2022-12-08T01:22:01.985Z,2.2
2022-12-08T01:23:02.037Z,2.2
2022-12-08T01:24:01.854Z,2.2
2022-12-08T01:25:01.796Z,2.2
2022-12-08T01:26:01.835Z,2.3
2022-12-08T01:27:01.681Z,2.2
2022-12-08T01:28:01.909Z,2.3
2022-12-08T01:29:01.704Z,2.3
2022-12-08T01:30:02.327Z,2.3
2022-12-08T01:31:01.457Z,2.3
2022-12-08T01:32:01.844Z,2.3
2022-12-08T01:33:01.889Z,2.2
2022-12-08T01:34:01.741Z,2.3
2022-12-08T01:35:01.727Z,2.3
2022-12-08T01:36:01.564Z,2.3
2022-12-08T01:37:01.574Z,2.3
2022-12-08T01:38:01.400Z,2.2
2022-12-08T01:39:01.813Z,2.3
2022-12-08T01:40:01.914Z,2.2
2022-12-08T01:41:02.136Z,2.3
2022-12-08T01:42:02.189Z,2.3
2022-12-08T01:43:02.033Z,2.3
2022-12-08T01:44:02.051Z,2.2
2022-12-08T01:45:01.905Z,2.2
2022-12-08T01:46:01.866Z,2.2
2022-12-08T01:47:01.703Z,2.3
2022-12-08T01:48:01.815Z,2.3
2022-12-08T01:49:01.741Z,2.3
2022-12-08T01:50:02.264Z,2.3
2022-12-08T01:51:02.305Z,2.3
2022-12-08T01:52:02.140Z,2.3
2022-12-08T01:53:02.170Z,2.3
2022-12-08T01:54:01.996Z,2.3
2022-12-08T01:55:02.024Z,2.2
2022-12-08T01:56:01.877Z,2.3
2022-12-08T01:57:01.835Z,2.2
2022-12-08T01:58:01.814Z,2.3
2022-12-08T01:59:01.665Z,2.3
2022-12-08T02:00:02.134Z,2.3
2022-12-08T02:01:01.455Z,2.3
2022-12-08T02:02:01.636Z,2.3
2022-12-08T02:03:01.796Z,2.3
2022-12-08T02:04:01.780Z,2.3
2022-12-08T02:05:01.674Z,2.3
2022-12-08T02:06:01.725Z,2.3
2022-12-08T02:07:04.975Z,2.3
2022-12-08T02:08:01.985Z,2.3
2022-12-08T02:09:01.908Z,2.3
2022-12-08T02:10:02.053Z,2.3
2022-12-08T02:11:01.968Z,2.3
2022-12-08T02:12:02.019Z,2.2
2022-12-08T02:13:01.869Z,2.3
2022-12-08T02:14:01.794Z,2.2
2022-12-08T02:15:04.953Z,2.2
2022-12-08T02:16:01.393Z,2.2
2022-12-08T02:17:01.789Z,2.3
2022-12-08T02:18:01.824Z,2.3
2022-12-08T02:19:28.904Z,2.3
2022-12-08T02:20:01.772Z,2.3
2022-12-08T02:21:02.027Z,2.3
2022-12-08T02:22:01.865Z,2.2
2022-12-08T02:23:01.820Z,2.3
2022-12-08T02:24:01.807Z,2.3
2022-12-08T02:25:01.606Z,2.2
2022-12-08T02:26:01.756Z,2.3
2022-12-08T02:27:01.649Z,2.3
2022-12-08T02:28:01.696Z,2.3
2022-12-08T02:29:01.594Z,2.2
2022-12-08T02:30:01.877Z,2.2
2022-12-08T02:31:02.131Z,2.3
2022-12-08T02:32:01.340Z,2.2
2022-12-08T02:33:01.432Z,2.2
2022-12-08T02:34:02.389Z,2.2
2022-12-08T02:35:02.280Z,2.2
2022-12-08T02:36:02.301Z,2.2
2022-12-08T02:37:02.129Z,2.2
2022-12-08T02:38:02.193Z,2.3
2022-12-08T02:39:02.010Z,2.3
2022-12-08T02:40:02.437Z,2.2
2022-12-08T02:41:01.679Z,2.2
2022-12-08T02:42:01.750Z,2.2
2022-12-08T02:43:01.611Z,2.2
2022-12-08T02:44:01.723Z,2.2
2022-12-08T02:45:01.544Z,2.1
2022-12-08T02:46:01.701Z,2.2
2022-12-08T02:47:01.663Z,2.2
2022-12-08T02:48:01.631Z,2.2
2022-12-08T02:49:01.563Z,2.1
2022-12-08T02:50:02.011Z,2.2
2022-12-08T02:51:01.843Z,2.2
2022-12-08T02:52:01.856Z,2.3
2022-12-08T02:53:01.899Z,2.2
2022-12-08T02:54:01.772Z,2.2
2022-12-08T02:55:01.731Z,2.2
2022-12-08T02:56:01.772Z,2.2
2022-12-08T02:57:01.702Z,2.1
2022-12-08T02:58:01.797Z,2.1
2022-12-08T02:59:01.638Z,2.1
2022-12-08T03:00:02.203Z,2.1
2022-12-08T03:01:01.632Z,2.1
2022-12-08T03:02:01.699Z,2.1
2022-12-08T03:03:01.948Z,2.1
2022-12-08T03:04:01.902Z,2.2
2022-12-08T03:05:01.891Z,2.2
2022-12-08T03:06:01.946Z,2.1
2022-12-08T03:07:01.739Z,2.1
2022-12-08T03:08:01.698Z,2.1
2022-12-08T03:09:01.851Z,2.2
2022-12-08T03:10:01.865Z,2.2
2022-12-08T03:11:02.150Z,2.2
2022-12-08T03:12:02.328Z,2.2
2022-12-08T03:13:02.189Z,2.2
2022-12-08T03:14:02.182Z,2.2
2022-12-08T03:15:02.018Z,2.2
2022-12-08T03:16:02.151Z,2.3
2022-12-08T03:17:02.101Z,2.1
2022-12-08T03:18:02.035Z,2.2
2022-12-08T03:19:02.086Z,2.1
2022-12-08T03:20:02.339Z,2.2
2022-12-08T03:21:01.383Z,2.2
2022-12-08T03:22:01.494Z,2.2
2022-12-08T03:23:01.387Z,2.1
2022-12-08T03:24:01.430Z,2.1
2022-12-08T03:25:02.368Z,2.1
2022-12-08T03:26:02.205Z,2.2
2022-12-08T03:27:01.461Z,2.1
2022-12-08T03:28:01.389Z,2.2
2022-12-08T03:29:01.488Z,2.1
2022-12-08T03:30:01.425Z,2.1
2022-12-08T03:31:01.397Z,2.1
2022-12-08T03:32:01.447Z,2.1
2022-12-08T03:33:01.489Z,2.1
2022-12-08T03:34:01.403Z,2.1
2022-12-08T03:35:01.459Z,2.1
2022-12-08T03:36:01.363Z,2.1
2022-12-08T03:37:01.444Z,2.1
2022-12-08T03:38:02.404Z,2.2
2022-12-08T03:39:02.242Z,2.1
2022-12-08T03:40:02.680Z,2.1
2022-12-08T03:41:01.696Z,2.1
2022-12-08T03:42:01.750Z,2.1
2022-12-08T03:43:01.706Z,2.2
2022-12-08T03:44:01.526Z,2.1
2022-12-08T03:45:01.414Z,2.1
2022-12-08T03:46:01.511Z,2.2
2022-12-08T03:47:01.398Z,2.1
2022-12-08T03:48:01.421Z,2.1
2022-12-08T03:49:02.400Z,2.2
2022-12-08T03:50:02.557Z,2.2
2022-12-08T03:51:01.336Z,2.2
2022-12-08T03:52:01.485Z,2.1
2022-12-08T03:53:01.368Z,2.2
2022-12-08T03:54:01.384Z,2.1
2022-12-08T03:55:01.383Z,2.1
2022-12-08T03:56:01.370Z,2.1
2022-12-08T03:57:01.316Z,2.2
2022-12-08T03:58:02.315Z,2.1
2022-12-08T03:59:02.234Z,2.1
2022-12-08T04:00:02.699Z,2.3
2022-12-08T04:01:01.734Z,2.1
2022-12-08T04:02:01.999Z,2.2
2022-12-08T04:03:02.014Z,2.2
2022-12-08T04:04:01.908Z,2.1
2022-12-08T04:05:01.786Z,2.1
2022-12-08T04:06:01.809Z,2.2
2022-12-08T04:07:01.736Z,2.2
2022-12-08T04:08:01.778Z,2.1
2022-12-08T04:09:01.643Z,2.1
2022-12-08T04:10:01.904Z,2.2
2022-12-08T04:11:01.893Z,2.2
2022-12-08T04:12:01.832Z,2.2
2022-12-08T04:13:01.825Z,2.2
2022-12-08T04:14:01.630Z,2.2
2022-12-08T04:15:01.622Z,2.1
2022-12-08T04:16:01.611Z,2.1
2022-12-08T04:17:02.014Z,2.1
2022-12-08T04:18:01.942Z,2.1
2022-12-08T04:19:01.876Z,2.1
2022-12-08T04:20:01.947Z,2.1
2022-12-08T04:21:02.125Z,2.1
2022-12-08T04:22:02.081Z,2.2
2022-12-08T04:23:02.003Z,2.1
2022-12-08T04:24:01.647Z,2.1
2022-12-08T04:25:01.469Z,2.1
2022-12-08T04:26:01.372Z,2.1
2022-12-08T04:27:01.365Z,2.1
2022-12-08T04:28:02.296Z,2.1
2022-12-08T04:29:02.220Z,2.1
2022-12-08T04:30:02.459Z,2.1
2022-12-08T04:31:01.747Z,2
2022-12-08T04:32:01.919Z,2
2022-12-08T04:33:01.898Z,2.1
2022-12-08T04:34:01.844Z,2.1
2022-12-08T04:35:01.776Z,2
2022-12-08T04:36:01.770Z,2.1
2022-12-08T04:37:01.673Z,2.1
2022-12-08T04:38:01.639Z,2.1
2022-12-08T04:39:01.581Z,2.1
2022-12-08T04:40:01.731Z,2.1
2022-12-08T04:41:01.518Z,2
2022-12-08T04:42:01.474Z,2.1
2022-12-08T04:43:01.386Z,2.1
2022-12-08T04:44:01.385Z,2
2022-12-08T04:45:02.310Z,2
2022-12-08T04:46:02.225Z,2.1
2022-12-08T04:47:02.038Z,2
2022-12-08T04:48:01.987Z,2
2022-12-08T04:49:01.886Z,2
2022-12-08T04:50:02.072Z,2
2022-12-08T04:51:02.159Z,2
2022-12-08T04:52:02.134Z,2
2022-12-08T04:53:01.994Z,2
2022-12-08T04:54:01.985Z,2
2022-12-08T04:55:01.905Z,2
2022-12-08T04:56:01.933Z,2
2022-12-08T04:57:01.872Z,2
2022-12-08T04:58:01.774Z,2
2022-12-08T04:59:01.729Z,2.1
2022-12-08T05:00:01.876Z,2
2022-12-08T05:01:02.016Z,2
2022-12-08T05:02:01.696Z,2
2022-12-08T05:03:02.069Z,2
2022-12-08T05:04:02.070Z,2
2022-12-08T05:05:02.030Z,2
2022-12-08T05:06:02.013Z,2
2022-12-08T05:07:01.915Z,2
2022-12-08T05:08:01.905Z,2.1
2022-12-08T05:09:02.064Z,2.1
2022-12-08T05:10:02.316Z,2
2022-12-08T05:11:02.204Z,2.1
2022-12-08T05:12:02.185Z,2
2022-12-08T05:13:02.087Z,2
2022-12-08T05:14:02.080Z,2.1
2022-12-08T05:15:01.949Z,2
2022-12-08T05:16:01.919Z,2
2022-12-08T05:17:06.322Z,2
2022-12-08T05:18:01.471Z,2
2022-12-08T05:19:01.629Z,2.1
2022-12-08T05:20:01.801Z,2
2022-12-08T05:21:01.865Z,2
2022-12-08T05:22:01.821Z,2
2022-12-08T05:23:01.734Z,2
2022-12-08T05:24:01.687Z,2
2022-12-08T05:25:01.626Z,2
2022-12-08T05:26:01.699Z,2
2022-12-08T05:27:01.603Z,2
2022-12-08T05:28:32.579Z,1.9
2022-12-08T05:29:01.367Z,2
2022-12-08T05:30:01.645Z,2
2022-12-08T05:31:01.333Z,2
2022-12-08T05:32:02.357Z,2
2022-12-08T05:33:02.281Z,2
2022-12-08T05:34:03.238Z,2
2022-12-08T05:35:01.330Z,2
2022-12-08T05:36:02.334Z,2.1
2022-12-08T05:37:02.259Z,2
2022-12-08T05:38:02.219Z,2
2022-12-08T05:39:02.139Z,2
2022-12-08T05:40:02.437Z,2.1
2022-12-08T05:41:01.491Z,2.1
2022-12-08T05:42:01.679Z,2.1
2022-12-08T05:43:01.579Z,2.1
2022-12-08T05:44:01.511Z,2.1
2022-12-08T05:45:01.407Z,2.1
2022-12-08T05:46:01.437Z,2.1
2022-12-08T05:47:01.470Z,2
2022-12-08T05:48:01.440Z,2
2022-12-08T05:49:01.393Z,2.1
2022-12-08T05:50:01.656Z,2
2022-12-08T05:51:01.712Z,2
2022-12-08T05:52:01.701Z,2
2022-12-08T05:53:01.583Z,2
2022-12-08T05:54:01.567Z,2
2022-12-08T05:55:01.453Z,2.1
2022-12-08T05:56:01.401Z,2.1
2022-12-08T05:57:01.325Z,2.1
2022-12-08T05:58:06.201Z,2.1
2022-12-08T05:59:01.812Z,2
2022-12-08T06:00:02.069Z,2.1
2022-12-08T06:01:02.135Z,2
2022-12-08T06:02:01.617Z,2.1
2022-12-08T06:03:02.035Z,2.1
2022-12-08T06:04:02.324Z,2.1
2022-12-08T06:05:02.170Z,2.1
2022-12-08T06:06:02.223Z,2.1
2022-12-08T06:07:02.071Z,2.1
2022-12-08T06:08:02.159Z,2.1
2022-12-08T06:09:02.318Z,2
2022-12-08T06:10:02.441Z,2.1
2022-12-08T06:11:01.404Z,2.1
2022-12-08T06:12:01.509Z,2.1
2022-12-08T06:13:01.452Z,2.1
2022-12-08T06:14:01.467Z,2.1
2022-12-08T06:15:01.437Z,2.1
2022-12-08T06:16:01.394Z,2.1
2022-12-08T06:17:01.735Z,2.1
2022-12-08T06:18:01.771Z,2
2022-12-08T06:19:01.816Z,2.1
2022-12-08T06:20:01.917Z,2.2
2022-12-08T06:21:01.906Z,2.1
2022-12-08T06:22:01.951Z,2.1
2022-12-08T06:23:01.836Z,2.1
2022-12-08T06:24:01.695Z,2.1
2022-12-08T06:25:03.220Z,2.1
2022-12-08T06:26:01.826Z,2.2
2022-12-08T06:27:01.936Z,2.1
2022-12-08T06:28:01.871Z,2.1
2022-12-08T06:29:01.756Z,2.2
2022-12-08T06:30:01.973Z,2.1
2022-12-08T06:31:02.011Z,2.2
2022-12-08T06:32:01.563Z,2.2
2022-12-08T06:33:01.568Z,2.2
2022-12-08T06:34:01.441Z,2.2
2022-12-08T06:35:01.397Z,2.2
2022-12-08T06:36:01.383Z,2.2
2022-12-08T06:37:01.485Z,2.2
2022-12-08T06:38:01.354Z,2.2
2022-12-08T06:39:02.404Z,2.2
2022-12-08T06:40:02.511Z,2.2
2022-12-08T06:41:01.415Z,2.2
2022-12-08T06:42:01.444Z,2.1
2022-12-08T06:43:02.403Z,2.2
2022-12-08T06:44:02.252Z,2.2
2022-12-08T06:45:02.297Z,2.2
2022-12-08T06:46:02.153Z,2.2
2022-12-08T06:47:01.511Z,2.2
2022-12-08T06:48:01.551Z,2.3
2022-12-08T06:49:01.464Z,2.3
2022-12-08T06:50:01.702Z,2.2
2022-12-08T06:51:01.665Z,2.2
2022-12-08T06:52:01.724Z,2.2
2022-12-08T06:53:05.334Z,2.2
2022-12-08T06:54:01.497Z,2.3
2022-12-08T06:55:01.570Z,2.3
2022-12-08T06:56:01.456Z,2.2
2022-12-08T06:57:01.467Z,2.3
2022-12-08T06:58:01.313Z,2.3
2022-12-08T06:59:01.397Z,2.2
2022-12-08T07:00:02.841Z,2.3
2022-12-08T07:01:01.882Z,2.3
2022-12-08T07:02:01.487Z,2.3
2022-12-08T07:03:01.517Z,2.4
2022-12-08T07:04:01.462Z,2.3
2022-12-08T07:05:01.469Z,2.3
2022-12-08T07:06:03.970Z,2.3
2022-12-08T07:07:01.366Z,2.4
2022-12-08T07:08:01.451Z,2.3
2022-12-08T07:09:01.353Z,2.3
2022-12-08T07:10:01.453Z,2.4
2022-12-08T07:11:02.418Z,2.4
2022-12-08T07:12:01.888Z,2.4
2022-12-08T07:13:01.899Z,2.4
2022-12-08T07:14:01.739Z,2.3
2022-12-08T07:15:01.751Z,2.4
2022-12-08T07:16:01.626Z,2.4
2022-12-08T07:17:01.881Z,2.4
2022-12-08T07:18:01.972Z,2.5
2022-12-08T07:19:01.803Z,2.5
2022-12-08T07:20:02.224Z,2.4
2022-12-08T07:21:02.230Z,2.5
2022-12-08T07:22:02.288Z,2.4
2022-12-08T07:23:02.156Z,2.4
2022-12-08T07:24:02.207Z,2.5
2022-12-08T07:25:01.979Z,2.4
2022-12-08T07:26:02.010Z,2.5
2022-12-08T07:27:01.824Z,2.5
2022-12-08T07:28:01.783Z,2.5
2022-12-08T07:29:01.700Z,2.5
2022-12-08T07:30:01.756Z,2.4
2022-12-08T07:31:01.499Z,2.5
2022-12-08T07:32:01.755Z,2.4
2022-12-08T07:33:01.757Z,2.4
2022-12-08T07:34:01.701Z,2.5
2022-12-08T07:35:01.584Z,2.5
2022-12-08T07:36:01.523Z,2.6
2022-12-08T07:37:01.481Z,2.7
2022-12-08T07:38:01.342Z,2.8
2022-12-08T07:39:02.381Z,2.9
2022-12-08T07:40:02.481Z,2.9
2022-12-08T07:41:01.444Z,3
2022-12-08T07:42:01.520Z,3.1
2022-12-08T07:43:01.372Z,3.1
2022-12-08T07:44:01.436Z,3.3
2022-12-08T07:45:01.383Z,3.1
2022-12-08T07:46:01.516Z,3.2
2022-12-08T07:47:02.294Z,3.1
2022-12-08T07:48:02.132Z,3.2
2022-12-08T07:49:02.166Z,3
2022-12-08T07:50:02.228Z,3.1
2022-12-08T07:51:02.079Z,3
2022-12-08T07:52:02.094Z,3
2022-12-08T07:53:01.943Z,2.9
2022-12-08T07:54:01.856Z,2.9
2022-12-08T07:55:01.922Z,2.8
2022-12-08T07:56:01.823Z,2.8
2022-12-08T07:57:01.671Z,2.9
2022-12-08T07:58:01.668Z,2.9
2022-12-08T07:59:01.576Z,2.8
2022-12-08T08:00:01.933Z,2.8
2022-12-08T08:01:01.966Z,2.8
2022-12-08T08:02:22.637Z,2.7
2022-12-08T08:03:01.869Z,2.7
2022-12-08T08:04:01.966Z,2.7
2022-12-08T08:05:01.915Z,2.8
2022-12-08T08:06:01.975Z,2.7
2022-12-08T08:07:02.006Z,2.8
2022-12-08T08:08:01.870Z,2.9
2022-12-08T08:09:02.025Z,2.9
2022-12-08T08:10:02.114Z,2.8
2022-12-08T08:11:03.801Z,2.8
2022-12-08T08:12:29.402Z,2.8
2022-12-08T08:13:02.230Z,2.9
2022-12-08T08:14:02.285Z,2.9
2022-12-08T08:15:02.139Z,2.8
2022-12-08T08:16:02.253Z,2.8
2022-12-08T08:17:01.540Z,2.7
2022-12-08T08:18:01.859Z,2.8
2022-12-08T08:19:01.713Z,2.9
2022-12-08T08:20:02.040Z,2.9
2022-12-08T08:21:06.863Z,2.9
2022-12-08T08:22:01.613Z,3
2022-12-08T08:23:01.603Z,3
2022-12-08T08:24:01.550Z,3
2022-12-08T08:25:01.764Z,2.9
2022-12-08T08:26:01.574Z,3
2022-12-08T08:27:01.572Z,3
2022-12-08T08:28:01.413Z,3
2022-12-08T08:29:01.393Z,3
2022-12-08T08:30:01.513Z,3
2022-12-08T08:31:02.320Z,3
2022-12-08T08:32:01.345Z,3
2022-12-08T08:33:01.470Z,2.9
2022-12-08T08:34:01.323Z,2.9
2022-12-08T08:35:02.387Z,2.8
2022-12-08T08:36:02.216Z,3
2022-12-08T08:37:02.332Z,3
2022-12-08T08:38:01.366Z,2.9
2022-12-08T08:39:01.454Z,2.9
2022-12-08T08:40:01.364Z,3
2022-12-08T08:41:02.029Z,3.1
2022-12-08T08:42:02.002Z,3
2022-12-08T08:43:01.774Z,3
2022-12-08T08:44:01.705Z,3.1
2022-12-08T08:45:01.755Z,3.1
2022-12-08T08:46:01.645Z,3.1
2022-12-08T08:47:01.575Z,3.1
2022-12-08T08:48:01.642Z,3.1
2022-12-08T08:49:01.548Z,3.1
2022-12-08T08:50:01.684Z,3.1
2022-12-08T08:51:01.461Z,3.2
2022-12-08T08:52:01.575Z,3.1
2022-12-08T08:53:01.468Z,3.1
2022-12-08T08:54:01.565Z,3.2
2022-12-08T08:55:01.444Z,3.3
2022-12-08T08:56:02.967Z,3.2
2022-12-08T08:57:01.806Z,3.2
2022-12-08T08:58:01.761Z,3.3
2022-12-08T08:59:01.818Z,3.3
2022-12-08T09:00:01.949Z,3.3
2022-12-08T09:01:01.992Z,3.3
2022-12-08T09:02:01.629Z,3.3
2022-12-08T09:03:01.829Z,3.4
2022-12-08T09:04:01.800Z,3.3
2022-12-08T09:05:01.888Z,3.3
2022-12-08T09:06:02.089Z,3.4
2022-12-08T09:07:02.012Z,3.3
2022-12-08T09:08:02.009Z,3.4
2022-12-08T09:09:02.079Z,3.4
2022-12-08T09:10:02.402Z,3.4
2022-12-08T09:11:01.986Z,3.3
2022-12-08T09:12:02.027Z,3.4
2022-12-08T09:13:01.916Z,3.4
2022-12-08T09:14:01.881Z,3.5
2022-12-08T09:15:01.901Z,3.5
2022-12-08T09:16:01.821Z,3.4
2022-12-08T09:17:01.795Z,3.4
2022-12-08T09:18:01.853Z,3.5
2022-12-08T09:19:01.765Z,3.5
2022-12-08T09:20:02.022Z,3.5
2022-12-08T09:21:02.154Z,3.5
2022-12-08T09:22:01.998Z,3.7
2022-12-08T09:23:01.911Z,3.5
2022-12-08T09:24:01.948Z,3.6
2022-12-08T09:25:01.868Z,3.6
2022-12-08T09:26:01.816Z,3.7
2022-12-08T09:27:01.896Z,3.7
2022-12-08T09:28:01.703Z,3.6
2022-12-08T09:29:01.836Z,3.7
2022-12-08T09:30:01.924Z,3.9
2022-12-08T09:31:02.105Z,3.9
2022-12-08T09:32:01.871Z,3.9
2022-12-08T09:33:01.922Z,3.8
2022-12-08T09:34:01.789Z,3.9
2022-12-08T09:35:01.726Z,3.8
2022-12-08T09:36:01.765Z,3.8
2022-12-08T09:37:01.566Z,4
2022-12-08T09:38:01.605Z,4.1
2022-12-08T09:39:01.412Z,4.2
2022-12-08T09:40:01.557Z,4.3
2022-12-08T09:41:02.386Z,4.2
2022-12-08T09:42:02.178Z,4.2
2022-12-08T09:43:02.140Z,4.3
2022-12-08T09:44:02.038Z,4.3
2022-12-08T09:45:02.003Z,4.4
2022-12-08T09:46:01.943Z,4.3
2022-12-08T09:47:01.912Z,4.5
2022-12-08T09:48:01.969Z,4.5
2022-12-08T09:49:01.827Z,4.5
2022-12-08T09:50:01.797Z,4.4
2022-12-08T09:51:02.299Z,4.3
2022-12-08T09:52:02.275Z,4.5
2022-12-08T09:53:02.192Z,4.4
2022-12-08T09:54:02.253Z,4.4
2022-12-08T09:55:02.141Z,4.4
2022-12-08T09:56:02.176Z,4.4
2022-12-08T09:57:02.014Z,4.4
2022-12-08T09:58:01.954Z,4.4
2022-12-08T09:59:01.876Z,4.2
2022-12-08T10:00:02.115Z,4.2
2022-12-08T10:01:02.143Z,4.2
2022-12-08T10:02:01.647Z,4.2
2022-12-08T10:03:01.695Z,4.2
2022-12-08T10:04:01.821Z,4.1
2022-12-08T10:05:01.747Z,4.1
2022-12-08T10:06:01.800Z,4.3
2022-12-08T10:07:01.918Z,4.2
2022-12-08T10:08:01.980Z,4.2
2022-12-08T10:09:01.912Z,4.1
2022-12-08T10:10:02.118Z,4.1
2022-12-08T10:11:02.380Z,4.2
2022-12-08T10:12:02.229Z,4.2
2022-12-08T10:13:02.649Z,4.1
2022-12-08T10:14:01.366Z,4.2
2022-12-08T10:15:01.383Z,4.3
2022-12-08T10:16:02.310Z,4.4
2022-12-08T10:17:02.256Z,4.5
2022-12-08T10:18:02.285Z,4.5
2022-12-08T10:19:02.131Z,4.3
2022-12-08T10:20:02.420Z,4.3
2022-12-08T10:21:01.507Z,4.3
2022-12-08T10:22:01.567Z,4.4
2022-12-08T10:23:01.406Z,4.3
2022-12-08T10:24:01.488Z,4.4
2022-12-08T10:25:01.385Z,4.3
2022-12-08T10:26:02.379Z,4.2
2022-12-08T10:27:02.223Z,4.3
2022-12-08T10:28:02.238Z,4.3
2022-12-08T10:29:02.053Z,4.4
2022-12-08T10:30:02.204Z,4.3
2022-12-08T10:31:02.292Z,4.4
2022-12-08T10:32:02.138Z,4.4
2022-12-08T10:33:02.140Z,4.4
2022-12-08T10:34:02.031Z,4.3
2022-12-08T10:35:02.072Z,4.3
2022-12-08T10:36:02.017Z,4.2
2022-12-08T10:37:01.807Z,4.3
2022-12-08T10:38:01.873Z,4.2
2022-12-08T10:39:01.823Z,4.2
2022-12-08T10:40:01.940Z,4.2
2022-12-08T10:41:02.002Z,4.3
2022-12-08T10:42:01.870Z,4.1
2022-12-08T10:43:01.845Z,4.1
2022-12-08T10:44:01.977Z,4.2
2022-12-08T10:45:01.921Z,4.2
2022-12-08T10:46:01.801Z,4.2
2022-12-08T10:47:02.474Z,4.2
2022-12-08T10:48:01.409Z,4.2
2022-12-08T10:49:01.373Z,4.2
2022-12-08T10:50:01.460Z,4.3
2022-12-08T10:51:01.887Z,4.2
2022-12-08T10:52:01.826Z,4.2
2022-12-08T10:53:01.747Z,4.1
2022-12-08T10:54:01.687Z,4.2
2022-12-08T10:55:01.650Z,4.2
2022-12-08T10:56:01.564Z,4.1
2022-12-08T10:57:01.699Z,4.1
2022-12-08T10:58:01.611Z,4.2
2022-12-08T10:59:01.498Z,4.1
2022-12-08T11:00:01.719Z,4.2
2022-12-08T11:01:02.320Z,4.2
2022-12-08T11:02:01.483Z,4.1
2022-12-08T11:03:01.648Z,4.2
2022-12-08T11:04:01.731Z,4.1
2022-12-08T11:05:01.668Z,4.2
2022-12-08T11:06:05.545Z,4.1
2022-12-08T11:07:01.698Z,4.1
2022-12-08T11:08:01.717Z,4.2
2022-12-08T11:09:01.634Z,4.2
2022-12-08T11:10:01.730Z,4.2
2022-12-08T11:11:01.904Z,4.1
2022-12-08T11:12:01.862Z,4.1
2022-12-08T11:13:01.737Z,4
2022-12-08T11:14:01.632Z,4
2022-12-08T11:15:01.562Z,4
2022-12-08T11:16:01.509Z,4
2022-12-08T11:17:01.582Z,4
2022-12-08T11:18:01.495Z,4.1
2022-12-08T11:19:01.449Z,4.1
2022-12-08T11:20:01.535Z,4.2
2022-12-08T11:21:02.098Z,4.1
2022-12-08T11:22:02.009Z,4
2022-12-08T11:23:01.963Z,4.1
2022-12-08T11:24:01.870Z,4.1
2022-12-08T11:25:01.822Z,4.1
2022-12-08T11:26:01.853Z,4.1
2022-12-08T11:27:01.804Z,4.1
2022-12-08T11:28:01.838Z,4.1
2022-12-08T11:29:01.774Z,4
2022-12-08T11:30:01.890Z,4.1
2022-12-08T11:31:01.959Z,4.1
2022-12-08T11:32:01.606Z,4
2022-12-08T11:33:01.683Z,4.2
2022-12-08T11:34:01.691Z,4.2
2022-12-08T11:35:01.695Z,4.1
2022-12-08T11:36:01.653Z,4.1
2022-12-08T11:37:01.598Z,4.2
2022-12-08T11:38:13.612Z,4.2
2022-12-08T11:39:01.392Z,4.2
2022-12-08T11:40:01.384Z,4.1
2022-12-08T11:41:01.702Z,4.2
2022-12-08T11:42:01.669Z,4.1
2022-12-08T11:43:01.618Z,4.2
2022-12-08T11:44:01.531Z,4.2
2022-12-08T11:45:01.476Z,4.2
2022-12-08T11:46:01.716Z,4.1
2022-12-08T11:47:01.362Z,4.2
2022-12-08T11:48:01.329Z,4.1
2022-12-08T11:49:06.176Z,4.2
2022-12-08T11:50:02.009Z,4.2
2022-12-08T11:51:02.297Z,4.1
2022-12-08T11:52:02.300Z,4.1
2022-12-08T11:53:02.240Z,4.3
2022-12-08T11:54:02.156Z,4.2
2022-12-08T11:55:02.115Z,4.2
2022-12-08T11:56:02.045Z,4.2
2022-12-08T11:57:01.986Z,4.1
2022-12-08T11:58:02.028Z,4.2
2022-12-08T11:59:01.906Z,4.2
2022-12-08T12:00:01.975Z,4.2
2022-12-08T12:01:01.522Z,4.2
2022-12-08T12:02:01.626Z,4.2
2022-12-08T12:03:01.548Z,4.2
2022-12-08T12:04:01.522Z,4
2022-12-08T12:05:01.442Z,4.1
2022-12-08T12:06:30.731Z,4.1
2022-12-08T12:07:01.807Z,4.1
2022-12-08T12:08:01.794Z,4.1
2022-12-08T12:09:01.781Z,4.1
2022-12-08T12:10:02.007Z,4
2022-12-08T12:11:01.942Z,4.1
2022-12-08T12:12:01.873Z,4.1
2022-12-08T12:13:01.889Z,4
2022-12-08T12:14:01.805Z,4
2022-12-08T12:15:01.859Z,3.9
2022-12-08T12:16:01.806Z,4
2022-12-08T12:17:01.737Z,4
2022-12-08T12:18:01.904Z,3.9
2022-12-08T12:19:01.851Z,3.9
2022-12-08T12:20:01.974Z,3.8
2022-12-08T12:21:01.912Z,3.9
2022-12-08T12:22:01.869Z,3.9
2022-12-08T12:23:01.882Z,3.8
2022-12-08T12:24:01.835Z,3.9
2022-12-08T12:25:01.710Z,3.9
2022-12-08T12:26:01.600Z,3.8
2022-12-08T12:27:01.527Z,3.8
2022-12-08T12:28:01.465Z,3.7
2022-12-08T12:29:01.387Z,3.7
2022-12-08T12:30:01.371Z,3.7
2022-12-08T12:31:01.332Z,3.6
2022-12-08T12:32:01.955Z,3.7
2022-12-08T12:33:01.910Z,3.7
2022-12-08T12:34:01.866Z,3.7
2022-12-08T12:35:01.849Z,3.6
2022-12-08T12:36:01.808Z,3.6
2022-12-08T12:37:01.837Z,3.6
2022-12-08T12:38:01.819Z,3.6
2022-12-08T12:39:01.815Z,3.6
2022-12-08T12:40:02.054Z,3.6
2022-12-08T12:41:02.258Z,3.7
2022-12-08T12:42:02.217Z,3.5
2022-12-08T12:43:02.141Z,3.4
2022-12-08T12:44:02.188Z,3.5
2022-12-08T12:45:02.049Z,3.6
2022-12-08T12:46:01.904Z,3.6
2022-12-08T12:47:01.640Z,3.6
2022-12-08T12:48:01.566Z,3.6
2022-12-08T12:49:01.458Z,3.5
2022-12-08T12:50:01.438Z,3.4
2022-12-08T12:51:02.004Z,3.4
2022-12-08T12:52:01.967Z,3.5
2022-12-08T12:53:01.882Z,3.4
2022-12-08T12:54:01.881Z,3.4
2022-12-08T12:55:01.824Z,3.4
2022-12-08T12:56:01.709Z,3.4
2022-12-08T12:57:01.732Z,3.2
2022-12-08T12:58:01.676Z,3.3
2022-12-08T12:59:01.564Z,3.3
2022-12-08T13:00:01.530Z,3.2
2022-12-08T13:01:01.471Z,3.1
2022-12-08T13:02:01.580Z,3.2
2022-12-08T13:03:01.470Z,3.2
2022-12-08T13:04:01.378Z,3.1
2022-12-08T13:05:01.333Z,3.1
2022-12-08T13:06:02.305Z,3.2
2022-12-08T13:07:02.255Z,3.1
2022-12-08T13:08:02.297Z,3.2
2022-12-08T13:09:01.385Z,3
2022-12-08T13:10:01.283Z,2.9
2022-12-08T13:11:02.265Z,3
2022-12-08T13:12:02.235Z,3.1
2022-12-08T13:13:02.191Z,3
2022-12-08T13:14:02.139Z,3
2022-12-08T13:15:02.090Z,2.9
2022-12-08T13:16:07.686Z,3
2022-12-08T13:17:02.112Z,2.9
2022-12-08T13:18:02.039Z,3
2022-12-08T13:19:01.956Z,3
2022-12-08T13:20:01.915Z,2.9
2022-12-08T13:21:01.858Z,2.9
2022-12-08T13:22:01.789Z,3
2022-12-08T13:23:01.684Z,2.9
2022-12-08T13:24:01.678Z,2.9
2022-12-08T13:25:01.565Z,2.9
2022-12-08T13:26:01.496Z,2.8
2022-12-08T13:27:01.413Z,2.9
2022-12-08T13:28:01.356Z,2.8
2022-12-08T13:29:02.315Z,2.8
2022-12-08T13:30:02.585Z,2.9
2022-12-08T13:31:01.515Z,2.8
2022-12-08T13:32:02.303Z,2.8
2022-12-08T13:33:17.559Z,2.8
2022-12-08T13:34:01.933Z,2.7
2022-12-08T13:35:01.917Z,2.8
2022-12-08T13:36:01.812Z,2.8
2022-12-08T13:37:01.950Z,2.8
2022-12-08T13:38:01.892Z,2.7
2022-12-08T13:39:01.898Z,2.6
2022-12-08T13:40:01.910Z,2.7
2022-12-08T13:41:02.169Z,2.6
2022-12-08T13:42:02.097Z,2.7
2022-12-08T13:43:02.007Z,2.6
2022-12-08T13:44:50.723Z,2.6
2022-12-08T13:45:59.440Z,2.5
2022-12-08T13:47:31.976Z,2.8
2022-12-08T13:48:22.046Z,2.8
2022-12-08T13:57:08.833Z,2.7
2022-12-08T13:58:01.590Z,2.7
2022-12-08T13:59:01.583Z,2.6
2022-12-08T14:00:01.691Z,2.7
2022-12-08T14:01:01.685Z,2.7
2022-12-08T14:02:01.717Z,2.7